Fall River, Kansas
Current Conditions -  °F | °C
As of 8:52 AM on Thursday 23 Oct 2014 (Local Time) from KCNU Reporting Station
Overcast Overcast  
Wind Chill: 59°   Ceiling: 4800
Heat Index: 59°   Visibility: 8mi
Dew Point: 58°   Wind: 12mph
Humidity: 96%   Direction: 180°S
Pressure: 30.13"   Gusts: NA
Location:  37.61°N, 96.03°W
Report Text: KCNU 231352Z AUTO 18010KT 8SM SCT036 OVC048 15/14 A3013 RMK AO2 RAB1257E07 SLP197 P0000 T01500144
Loading
Personal Weather Stations






























Interactive Weather Map
Tropical Storm Tracking
New forecast layout! Learn more

10-Day Weather Forecast

Advertisements
Track Severe Weather on mobile